Terminal Aerodrome Forecast
Issued by NWS Cleveland, OH

Home | Current Version | Previous Version | Text Only | Print | Product List | Glossary Off
Versions: 1 2 3 4 5 6 7 8 9 10 11 12 13 14 15 16 17 18 19 20 21 22 23 24 25 26

000
FTUS41 KCLE 270301 AAB
TAFCLE
TAF AMD
KCLE 270301Z 2703/2806 VRB03KT P6SM VCSH OVC045
     FM270600 00000KT P6SM OVC035
     FM271400 33005KT P6SM SCT035
     FM271900 35006KT P6SM SCT250
     FM280000 00000KT P6SM SCT250=

USA.gov is the U.S. government's official web portal to all federal, state and local government web resources and services.